Terminal Aerodrome Forecast
Issued by NWS

Home | Current Version | Previous Version | Text Only | Print | Product List | Glossary On
Versions: 1 2 3 4 5 6 7 8 9 10 11 12 13
093
FTUS46 KHNX 121122
TAFBFL
TAF
KBFL 121122Z 1212/1312 VRB03KT 4SM BR SCT200
      TEMPO 1213/1217 2SM BR
     FM121800 30006KT 5SM HZ SCT200
     FM130300 VRB04KT 4SM HZ SCT200=

USA.gov is the U.S. government's official web portal to all federal, state and local government web resources and services.